sensor_id;sensor_type;location;lat;lon;timestamp;pressure;altitude;pressure_sealevel;temperature;humidity
32456;BME280;18912;43.270;27.942;2024-03-17T00:01:13;98556.13;;;7.86;60.84
32456;BME280;18912;43.270;27.942;2024-03-17T00:03:38;98563.25;;;7.79;60.92
32456;BME280;18912;43.270;27.942;2024-03-17T00:06:04;98547.47;;;7.76;60.95
32456;BME280;18912;43.270;27.942;2024-03-17T00:08:29;98561.56;;;7.78;60.80
32456;BME280;18912;43.270;27.942;2024-03-17T00:10:55;98551.69;;;7.70;60.52
32456;BME280;18912;43.270;27.942;2024-03-17T00:13:21;98550.44;;;7.58;60.53
32456;BME280;18912;43.270;27.942;2024-03-17T00:15:48;98551.50;;;7.49;60.32
32456;BME280;18912;43.270;27.942;2024-03-17T00:18:13;98551.19;;;7.44;60.58
32456;BME280;18912;43.270;27.942;2024-03-17T00:20:40;98547.47;;;7.45;60.69
32456;BME280;18912;43.270;27.942;2024-03-17T00:23:05;98548.50;;;7.44;60.66
32456;BME280;18912;43.270;27.942;2024-03-17T00:25:35;98551.44;;;7.57;60.75
32456;BME280;18912;43.270;27.942;2024-03-17T00:28:01;98544.88;;;7.60;61.17
32456;BME280;18912;43.270;27.942;2024-03-17T00:30:26;98554.56;;;7.69;61.16
32456;BME280;18912;43.270;27.942;2024-03-17T00:32:52;98540.41;;;7.75;61.20
32456;BME280;18912;43.270;27.942;2024-03-17T00:35:17;98548.72;;;7.88;61.50
32456;BME280;18912;43.270;27.942;2024-03-17T00:37:49;98543.81;;;7.91;60.91
32456;BME280;18912;43.270;27.942;2024-03-17T00:40:16;98543.94;;;7.98;60.63
32456;BME280;18912;43.270;27.942;2024-03-17T00:42:42;98544.56;;;8.00;61.09
32456;BME280;18912;43.270;27.942;2024-03-17T00:45:08;98553.16;;;8.03;60.90
32456;BME280;18912;43.270;27.942;2024-03-17T00:47:35;98551.38;;;7.96;60.50
32456;BME280;18912;43.270;27.942;2024-03-17T00:50:01;98536.25;;;7.87;59.69
32456;BME280;18912;43.270;27.942;2024-03-17T00:52:26;98529.66;;;7.75;59.31
32456;BME280;18912;43.270;27.942;2024-03-17T00:54:52;98541.06;;;7.77;59.34
32456;BME280;18912;43.270;27.942;2024-03-17T00:57:19;98542.72;;;7.78;59.38
32456;BME280;18912;43.270;27.942;2024-03-17T00:59:44;98537.81;;;7.81;59.21
32456;BME280;18912;43.270;27.942;2024-03-17T01:02:13;98538.31;;;7.85;59.94
32456;BME280;18912;43.270;27.942;2024-03-17T01:04:45;98538.81;;;7.88;60.68
32456;BME280;18912;43.270;27.942;2024-03-17T01:07:11;98539.19;;;8.00;60.77
32456;BME280;18912;43.270;27.942;2024-03-17T01:09:37;98536.25;;;8.09;60.90
32456;BME280;18912;43.270;27.942;2024-03-17T01:12:02;98528.09;;;8.17;61.01
32456;BME280;18912;43.270;27.942;2024-03-17T01:14:29;98535.66;;;8.22;60.62
32456;BME280;18912;43.270;27.942;2024-03-17T01:16:55;98531.84;;;8.16;60.68
32456;BME280;18912;43.270;27.942;2024-03-17T01:19:20;98532.66;;;8.17;60.89
32456;BME280;18912;43.270;27.942;2024-03-17T01:21:46;98531.44;;;8.19;61.08
32456;BME280;18912;43.270;27.942;2024-03-17T01:24:12;98532.72;;;8.31;61.28
32456;BME280;18912;43.270;27.942;2024-03-17T01:26:38;98526.34;;;8.47;60.97
32456;BME280;18912;43.270;27.942;2024-03-17T01:29:03;98520.66;;;8.42;60.99
32456;BME280;18912;43.270;27.942;2024-03-17T01:31:29;98508.41;;;8.39;60.84
32456;BME280;18912;43.270;27.942;2024-03-17T01:33:54;98519.34;;;8.38;60.85
32456;BME280;18912;43.270;27.942;2024-03-17T01:36:20;98521.03;;;8.39;61.03
32456;BME280;18912;43.270;27.942;2024-03-17T01:38:45;98511.66;;;8.35;61.01
32456;BME280;18912;43.270;27.942;2024-03-17T01:41:11;98521.50;;;8.42;61.10
32456;BME280;18912;43.270;27.942;2024-03-17T01:43:36;98528.09;;;8.40;61.10
32456;BME280;18912;43.270;27.942;2024-03-17T01:46:02;98511.72;;;8.27;60.47
32456;BME280;18912;43.270;27.942;2024-03-17T01:48:28;98507.69;;;8.23;60.18
32456;BME280;18912;43.270;27.942;2024-03-17T01:50:55;98513.16;;;8.15;60.17
32456;BME280;18912;43.270;27.942;2024-03-17T01:53:22;98507.78;;;8.15;59.96
32456;BME280;18912;43.270;27.942;2024-03-17T01:55:53;98515.34;;;7.97;59.73
32456;BME280;18912;43.270;27.942;2024-03-17T01:58:24;98509.09;;;7.96;59.61
32456;BME280;18912;43.270;27.942;2024-03-17T02:00:50;98503.91;;;7.95;59.60
32456;BME280;18912;43.270;27.942;2024-03-17T02:03:17;98501.94;;;7.66;59.44
32456;BME280;18912;43.270;27.942;2024-03-17T02:05:43;98510.63;;;7.53;59.41
32456;BME280;18912;43.270;27.942;2024-03-17T02:08:09;98512.25;;;7.63;59.68
32456;BME280;18912;43.270;27.942;2024-03-17T02:10:35;98507.66;;;7.71;59.33
32456;BME280;18912;43.270;27.942;2024-03-17T02:13:01;98502.09;;;7.73;59.28
32456;BME280;18912;43.270;27.942;2024-03-17T02:15:28;98507.28;;;7.74;59.44
32456;BME280;18912;43.270;27.942;2024-03-17T02:17:54;98502.19;;;7.79;59.48
32456;BME280;18912;43.270;27.942;2024-03-17T02:20:20;98501.06;;;7.74;59.50
32456;BME280;18912;43.270;27.942;2024-03-17T02:22:50;98508.13;;;7.75;59.66
32456;BME280;18912;43.270;27.942;2024-03-17T02:25:15;98503.41;;;7.54;60.08
32456;BME280;18912;43.270;27.942;2024-03-17T02:27:41;98504.25;;;7.46;60.77
32456;BME280;18912;43.270;27.942;2024-03-17T02:30:06;98499.69;;;7.55;61.31
32456;BME280;18912;43.270;27.942;2024-03-17T02:32:37;98503.94;;;7.72;61.44
32456;BME280;18912;43.270;27.942;2024-03-17T02:35:03;98501.38;;;7.79;61.30
32456;BME280;18912;43.270;27.942;2024-03-17T02:37:30;98497.50;;;7.73;61.20
32456;BME280;18912;43.270;27.942;2024-03-17T02:39:55;98503.03;;;7.80;61.77
32456;BME280;18912;43.270;27.942;2024-03-17T02:42:21;98489.94;;;7.77;62.33
32456;BME280;18912;43.270;27.942;2024-03-17T02:44:46;98498.44;;;7.88;62.34
32456;BME280;18912;43.270;27.942;2024-03-17T02:47:12;98497.41;;;7.89;62.11
32456;BME280;18912;43.270;27.942;2024-03-17T02:49:40;98495.19;;;7.93;61.97
32456;BME280;18912;43.270;27.942;2024-03-17T02:52:10;98487.09;;;7.93;62.07
32456;BME280;18912;43.270;27.942;2024-03-17T02:54:36;98486.91;;;7.94;61.70
32456;BME280;18912;43.270;27.942;2024-03-17T02:57:02;98489.13;;;7.91;61.77
32456;BME280;18912;43.270;27.942;2024-03-17T02:59:28;98489.44;;;7.96;62.06
32456;BME280;18912;43.270;27.942;2024-03-17T03:01:53;98476.34;;;7.93;61.68
32456;BME280;18912;43.270;27.942;2024-03-17T03:04:20;98479.03;;;7.93;61.31
32456;BME280;18912;43.270;27.942;2024-03-17T03:06:45;98485.44;;;7.92;61.36
32456;BME280;18912;43.270;27.942;2024-03-17T03:09:11;98481.91;;;7.91;62.07
32456;BME280;18912;43.270;27.942;2024-03-17T03:11:40;98489.13;;;7.91;62.31
32456;BME280;18912;43.270;27.942;2024-03-17T03:14:06;98490.34;;;7.88;61.79
32456;BME280;18912;43.270;27.942;2024-03-17T03:16:32;98491.88;;;7.83;61.63
32456;BME280;18912;43.270;27.942;2024-03-17T03:18:58;98490.66;;;7.71;61.12
32456;BME280;18912;43.270;27.942;2024-03-17T03:21:24;98485.94;;;7.73;60.91
32456;BME280;18912;43.270;27.942;2024-03-17T03:23:49;98490.09;;;7.75;61.36
32456;BME280;18912;43.270;27.942;2024-03-17T03:26:15;98492.13;;;7.73;61.90
32456;BME280;18912;43.270;27.942;2024-03-17T03:28:40;98502.25;;;7.94;62.14
32456;BME280;18912;43.270;27.942;2024-03-17T03:31:06;98500.38;;;7.94;62.07
32456;BME280;18912;43.270;27.942;2024-03-17T03:33:32;98495.09;;;7.86;61.72
32456;BME280;18912;43.270;27.942;2024-03-17T03:35:57;98500.47;;;7.86;60.78
32456;BME280;18912;43.270;27.942;2024-03-17T03:38:23;98508.47;;;7.72;60.59
32456;BME280;18912;43.270;27.942;2024-03-17T03:40:49;98501.66;;;7.61;60.23
32456;BME280;18912;43.270;27.942;2024-03-17T03:43:15;98501.06;;;7.51;59.87
32456;BME280;18912;43.270;27.942;2024-03-17T03:45:40;98502.75;;;7.52;60.16
32456;BME280;18912;43.270;27.942;2024-03-17T03:48:07;98505.97;;;7.47;61.40
32456;BME280;18912;43.270;27.942;2024-03-17T03:50:37;98514.28;;;7.61;61.47
32456;BME280;18912;43.270;27.942;2024-03-17T03:53:03;98515.06;;;7.69;61.34
32456;BME280;18912;43.270;27.942;2024-03-17T03:55:29;98514.97;;;7.77;61.42
32456;BME280;18912;43.270;27.942;2024-03-17T03:57:54;98517.38;;;7.72;61.52
32456;BME280;18912;43.270;27.942;2024-03-17T04:00:20;98511.16;;;7.72;61.43
32456;BME280;18912;43.270;27.942;2024-03-17T04:02:51;98513.03;;;7.71;62.02
32456;BME280;18912;43.270;27.942;2024-03-17T04:05:20;98515.97;;;7.62;62.33
32456;BME280;18912;43.270;27.942;2024-03-17T04:07:46;98509.19;;;7.66;62.58
32456;BME280;18912;43.270;27.942;2024-03-17T04:10:13;98521.00;;;7.79;62.55
32456;BME280;18912;43.270;27.942;2024-03-17T04:12:39;98512.69;;;7.89;62.19
32456;BME280;18912;43.270;27.942;2024-03-17T04:15:05;98507.69;;;7.86;62.14
32456;BME280;18912;43.270;27.942;2024-03-17T04:17:36;98519.13;;;7.88;62.27
32456;BME280;18912;43.270;27.942;2024-03-17T04:20:02;98522.47;;;7.90;62.30
32456;BME280;18912;43.270;27.942;2024-03-17T04:22:28;98526.41;;;7.79;62.65
32456;BME280;18912;43.270;27.942;2024-03-17T04:24:53;98523.94;;;7.92;62.52
32456;BME280;18912;43.270;27.942;2024-03-17T04:27:28;98526.81;;;7.91;62.38
32456;BME280;18912;43.270;27.942;2024-03-17T04:29:54;98527.19;;;7.88;62.36
32456;BME280;18912;43.270;27.942;2024-03-17T04:32:21;98519.53;;;7.99;62.66
32456;BME280;18912;43.270;27.942;2024-03-17T04:34:46;98524.28;;;8.12;62.67
32456;BME280;18912;43.270;27.942;2024-03-17T04:37:13;98526.50;;;8.08;62.92
32456;BME280;18912;43.270;27.942;2024-03-17T04:39:39;98527.38;;;8.23;63.24
32456;BME280;18912;43.270;27.942;2024-03-17T04:42:05;98538.97;;;8.32;62.53
32456;BME280;18912;43.270;27.942;2024-03-17T04:44:32;98522.44;;;8.35;62.24
32456;BME280;18912;43.270;27.942;2024-03-17T04:46:57;98533.94;;;8.43;62.54
32456;BME280;18912;43.270;27.942;2024-03-17T04:49:23;98534.63;;;8.60;62.91
32456;BME280;18912;43.270;27.942;2024-03-17T04:51:49;98527.38;;;8.75;62.88
32456;BME280;18912;43.270;27.942;2024-03-17T04:54:15;98538.34;;;9.03;62.82
32456;BME280;18912;43.270;27.942;2024-03-17T04:56:41;98540.56;;;9.28;62.14
32456;BME280;18912;43.270;27.942;2024-03-17T04:59:06;98539.88;;;9.41;61.96
32456;BME280;18912;43.270;27.942;2024-03-17T05:01:32;98538.50;;;9.66;61.68
32456;BME280;18912;43.270;27.942;2024-03-17T05:04:04;98531.22;;;9.88;61.41
32456;BME280;18912;43.270;27.942;2024-03-17T05:06:29;98542.56;;;10.40;60.48
32456;BME280;18912;43.270;27.942;2024-03-17T05:08:55;98550.22;;;10.64;60.21
32456;BME280;18912;43.270;27.942;2024-03-17T05:11:21;98551.66;;;10.94;60.24
32456;BME280;18912;43.270;27.942;2024-03-17T05:13:49;98549.91;;;11.14;59.91
32456;BME280;18912;43.270;27.942;2024-03-17T05:16:15;98547.91;;;11.36;59.08
32456;BME280;18912;43.270;27.942;2024-03-17T05:18:41;98551.88;;;11.34;59.50
32456;BME280;18912;43.270;27.942;2024-03-17T05:21:07;98552.84;;;11.60;58.60
32456;BME280;18912;43.270;27.942;2024-03-17T05:23:36;98555.22;;;11.36;60.16
32456;BME280;18912;43.270;27.942;2024-03-17T05:26:02;98559.75;;;11.28;60.61
32456;BME280;18912;43.270;27.942;2024-03-17T05:28:30;98553.06;;;11.18;62.03
32456;BME280;18912;43.270;27.942;2024-03-17T05:30:56;98553.75;;;10.65;65.32
32456;BME280;18912;43.270;27.942;2024-03-17T05:33:23;98554.09;;;10.83;64.79
32456;BME280;18912;43.270;27.942;2024-03-17T05:35:57;98550.16;;;10.85;64.98
32456;BME280;18912;43.270;27.942;2024-03-17T05:38:27;98554.84;;;11.04;64.59
32456;BME280;18912;43.270;27.942;2024-03-17T05:41:03;98548.06;;;11.21;64.16
32456;BME280;18912;43.270;27.942;2024-03-17T05:43:33;98557.47;;;10.91;66.06
32456;BME280;18912;43.270;27.942;2024-03-17T05:46:00;98554.97;;;11.24;65.59
32456;BME280;18912;43.270;27.942;2024-03-17T05:48:27;98560.66;;;11.36;65.63
32456;BME280;18912;43.270;27.942;2024-03-17T05:50:53;98563.09;;;11.30;67.11
32456;BME280;18912;43.270;27.942;2024-03-17T05:53:19;98567.16;;;10.79;71.38
32456;BME280;18912;43.270;27.942;2024-03-17T05:55:45;98566.63;;;10.90;72.36
32456;BME280;18912;43.270;27.942;2024-03-17T05:58:11;98571.06;;;10.43;76.18
32456;BME280;18912;43.270;27.942;2024-03-17T06:00:38;98574.22;;;10.46;78.86
32456;BME280;18912;43.270;27.942;2024-03-17T06:03:04;98576.53;;;10.28;80.29
32456;BME280;18912;43.270;27.942;2024-03-17T06:05:35;98577.84;;;10.60;80.52
32456;BME280;18912;43.270;27.942;2024-03-17T06:08:02;98576.06;;;10.73;80.25
32456;BME280;18912;43.270;27.942;2024-03-17T06:10:29;98579.75;;;11.27;78.04
32456;BME280;18912;43.270;27.942;2024-03-17T06:12:56;98585.88;;;11.96;76.00
32456;BME280;18912;43.270;27.942;2024-03-17T06:15:22;98589.22;;;12.05;75.69
32456;BME280;18912;43.270;27.942;2024-03-17T06:17:49;98585.00;;;11.36;77.59
32456;BME280;18912;43.270;27.942;2024-03-17T06:20:20;98588.66;;;10.60;80.46
32456;BME280;18912;43.270;27.942;2024-03-17T06:22:47;98592.69;;;10.70;81.82
32456;BME280;18912;43.270;27.942;2024-03-17T06:25:15;98591.84;;;10.97;80.62
32456;BME280;18912;43.270;27.942;2024-03-17T06:27:41;98592.75;;;11.45;79.57
32456;BME280;18912;43.270;27.942;2024-03-17T06:30:12;98589.78;;;11.34;79.96
32456;BME280;18912;43.270;27.942;2024-03-17T06:32:40;98597.19;;;12.13;77.40
32456;BME280;18912;43.270;27.942;2024-03-17T06:35:07;98591.34;;;12.16;74.68
32456;BME280;18912;43.270;27.942;2024-03-17T06:37:32;98596.78;;;11.21;78.66
32456;BME280;18912;43.270;27.942;2024-03-17T06:39:58;98600.47;;;11.89;76.79
32456;BME280;18912;43.270;27.942;2024-03-17T06:42:24;98590.31;;;12.30;74.92
32456;BME280;18912;43.270;27.942;2024-03-17T06:44:49;98607.34;;;12.04;76.11
32456;BME280;18912;43.270;27.942;2024-03-17T06:47:15;98604.22;;;11.47;78.44
32456;BME280;18912;43.270;27.942;2024-03-17T06:49:40;98598.66;;;12.22;75.06
32456;BME280;18912;43.270;27.942;2024-03-17T06:52:06;98592.97;;;11.91;76.36
32456;BME280;18912;43.270;27.942;2024-03-17T06:54:31;98604.69;;;13.29;72.87
32456;BME280;18912;43.270;27.942;2024-03-17T06:56:58;98602.06;;;13.66;68.32
32456;BME280;18912;43.270;27.942;2024-03-17T06:59:24;98607.59;;;14.35;64.96
32456;BME280;18912;43.270;27.942;2024-03-17T07:01:50;98605.06;;;14.89;62.76
32456;BME280;18912;43.270;27.942;2024-03-17T07:04:16;98608.38;;;15.77;60.43
32456;BME280;18912;43.270;27.942;2024-03-17T07:06:46;98592.97;;;15.28;60.45
32456;BME280;18912;43.270;27.942;2024-03-17T07:09:12;98605.97;;;15.51;59.29
32456;BME280;18912;43.270;27.942;2024-03-17T07:11:37;98608.47;;;15.28;60.03
32456;BME280;18912;43.270;27.942;2024-03-17T07:14:03;98599.66;;;13.39;65.88
32456;BME280;18912;43.270;27.942;2024-03-17T07:16:29;98608.41;;;13.54;65.65
32456;BME280;18912;43.270;27.942;2024-03-17T07:18:57;98609.13;;;13.74;65.68
32456;BME280;18912;43.270;27.942;2024-03-17T07:21:23;98604.22;;;14.40;63.32
32456;BME280;18912;43.270;27.942;2024-03-17T07:23:48;98611.59;;;14.88;62.69
32456;BME280;18912;43.270;27.942;2024-03-17T07:26:14;98602.63;;;14.19;64.44
32456;BME280;18912;43.270;27.942;2024-03-17T07:28:40;98609.13;;;16.43;56.97
32456;BME280;18912;43.270;27.942;2024-03-17T07:31:08;98611.69;;;15.43;57.12
32456;BME280;18912;43.270;27.942;2024-03-17T07:33:34;98614.84;;;16.12;56.82
32456;BME280;18912;43.270;27.942;2024-03-17T07:36:00;98610.81;;;16.44;55.68
32456;BME280;18912;43.270;27.942;2024-03-17T07:38:27;98600.84;;;16.79;55.60
32456;BME280;18912;43.270;27.942;2024-03-17T07:43:23;98598.41;;;17.99;52.21
32456;BME280;18912;43.270;27.942;2024-03-17T07:48:31;98605.72;;;17.01;52.82
32456;BME280;18912;43.270;27.942;2024-03-17T07:51:02;98596.69;;;17.46;51.40
32456;BME280;18912;43.270;27.942;2024-03-17T07:53:30;98609.13;;;18.56;49.49
32456;BME280;18912;43.270;27.942;2024-03-17T07:58:25;98605.16;;;18.36;46.45
32456;BME280;18912;43.270;27.942;2024-03-17T08:01:00;98605.25;;;18.69;47.70
32456;BME280;18912;43.270;27.942;2024-03-17T08:03:28;98598.16;;;17.49;49.08
32456;BME280;18912;43.270;27.942;2024-03-17T08:05:54;98597.81;;;17.57;49.14
32456;BME280;18912;43.270;27.942;2024-03-17T08:08:20;98604.19;;;17.16;48.96
32456;BME280;18912;43.270;27.942;2024-03-17T08:10:46;98601.47;;;17.05;50.16
32456;BME280;18912;43.270;27.942;2024-03-17T08:13:14;98590.47;;;18.25;47.64
32456;BME280;18912;43.270;27.942;2024-03-17T08:15:42;98582.75;;;19.17;45.46
32456;BME280;18912;43.270;27.942;2024-03-17T08:18:09;98588.56;;;19.75;44.31
32456;BME280;18912;43.270;27.942;2024-03-17T08:23:05;98589.56;;;18.64;46.23
32456;BME280;18912;43.270;27.942;2024-03-17T08:25:34;98590.06;;;19.66;43.63
32456;BME280;18912;43.270;27.942;2024-03-17T08:28:00;98597.25;;;19.89;42.64
32456;BME280;18912;43.270;27.942;2024-03-17T08:30:26;98582.50;;;19.02;43.86
32456;BME280;18912;43.270;27.942;2024-03-17T08:32:51;98581.84;;;18.61;45.45
32456;BME280;18912;43.270;27.942;2024-03-17T08:35:17;98579.72;;;20.16;42.74
32456;BME280;18912;43.270;27.942;2024-03-17T08:37:42;98582.31;;;19.25;42.68
32456;BME280;18912;43.270;27.942;2024-03-17T08:40:09;98577.69;;;19.42;42.28
32456;BME280;18912;43.270;27.942;2024-03-17T08:42:35;98578.06;;;18.06;44.52
32456;BME280;18912;43.270;27.942;2024-03-17T08:45:01;98577.53;;;19.32;42.91
32456;BME280;18912;43.270;27.942;2024-03-17T08:47:28;98572.78;;;20.30;40.48
32456;BME280;18912;43.270;27.942;2024-03-17T08:49:54;98567.69;;;19.74;41.91
32456;BME280;18912;43.270;27.942;2024-03-17T08:52:19;98572.09;;;19.53;42.16
32456;BME280;18912;43.270;27.942;2024-03-17T08:54:49;98572.34;;;19.52;41.15
32456;BME280;18912;43.270;27.942;2024-03-17T08:57:18;98564.31;;;19.89;41.58
32456;BME280;18912;43.270;27.942;2024-03-17T08:59:46;98561.53;;;20.59;39.87
32456;BME280;18912;43.270;27.942;2024-03-17T09:02:13;98573.91;;;20.34;38.79
32456;BME280;18912;43.270;27.942;2024-03-17T09:04:40;98566.81;;;19.47;40.35
32456;BME280;18912;43.270;27.942;2024-03-17T09:07:06;98566.22;;;19.12;40.54
32456;BME280;18912;43.270;27.942;2024-03-17T09:09:32;98568.03;;;19.23;41.02
32456;BME280;18912;43.270;27.942;2024-03-17T09:11:58;98569.09;;;18.84;42.81
32456;BME280;18912;43.270;27.942;2024-03-17T09:14:24;98562.53;;;19.56;41.45
32456;BME280;18912;43.270;27.942;2024-03-17T09:16:49;98567.88;;;19.89;41.50
32456;BME280;18912;43.270;27.942;2024-03-17T09:19:15;98552.63;;;19.33;43.18
32456;BME280;18912;43.270;27.942;2024-03-17T09:21:40;98556.03;;;19.62;42.43
32456;BME280;18912;43.270;27.942;2024-03-17T09:24:09;98559.50;;;19.36;43.99
32456;BME280;18912;43.270;27.942;2024-03-17T09:26:35;98550.19;;;19.58;42.06
32456;BME280;18912;43.270;27.942;2024-03-17T09:29:01;98552.78;;;18.44;43.50
32456;BME280;18912;43.270;27.942;2024-03-17T09:31:26;98551.31;;;19.79;43.38
32456;BME280;18912;43.270;27.942;2024-03-17T09:33:52;98548.16;;;18.94;44.68
32456;BME280;18912;43.270;27.942;2024-03-17T09:36:18;98543.91;;;19.58;43.63
32456;BME280;18912;43.270;27.942;2024-03-17T09:38:44;98545.47;;;19.97;43.38
32456;BME280;18912;43.270;27.942;2024-03-17T09:41:24;98544.59;;;20.13;42.82
32456;BME280;18912;43.270;27.942;2024-03-17T09:43:56;98546.06;;;19.99;42.38
32456;BME280;18912;43.270;27.942;2024-03-17T09:46:26;98543.44;;;20.09;42.58
32456;BME280;18912;43.270;27.942;2024-03-17T09:48:53;98544.00;;;20.11;43.37
32456;BME280;18912;43.270;27.942;2024-03-17T09:51:23;98533.72;;;20.23;42.86
32456;BME280;18912;43.270;27.942;2024-03-17T09:53:50;98542.75;;;19.97;44.15
32456;BME280;18912;43.270;27.942;2024-03-17T09:56:17;98541.97;;;20.23;42.75
32456;BME280;18912;43.270;27.942;2024-03-17T09:58:48;98531.97;;;20.17;43.55
32456;BME280;18912;43.270;27.942;2024-03-17T10:01:14;98524.44;;;20.29;44.22
32456;BME280;18912;43.270;27.942;2024-03-17T10:03:51;98532.25;;;21.01;41.87
32456;BME280;18912;43.270;27.942;2024-03-17T10:06:18;98523.94;;;20.32;41.55
32456;BME280;18912;43.270;27.942;2024-03-17T10:08:48;98525.09;;;19.88;43.31
32456;BME280;18912;43.270;27.942;2024-03-17T10:11:19;98531.53;;;20.52;42.52
32456;BME280;18912;43.270;27.942;2024-03-17T10:13:46;98531.16;;;19.90;45.23
32456;BME280;18912;43.270;27.942;2024-03-17T10:16:25;98522.28;;;20.31;43.96
32456;BME280;18912;43.270;27.942;2024-03-17T10:21:36;98516.06;;;19.28;43.80
32456;BME280;18912;43.270;27.942;2024-03-17T10:26:42;98519.25;;;19.03;44.91
32456;BME280;18912;43.270;27.942;2024-03-17T10:29:24;98517.56;;;19.19;45.66
32456;BME280;18912;43.270;27.942;2024-03-17T10:31:55;98517.16;;;19.70;44.42
32456;BME280;18912;43.270;27.942;2024-03-17T10:34:22;98521.22;;;19.08;45.11
32456;BME280;18912;43.270;27.942;2024-03-17T10:36:50;98505.44;;;19.15;45.82
32456;BME280;18912;43.270;27.942;2024-03-17T10:39:24;98517.63;;;17.28;48.23
32456;BME280;18912;43.270;27.942;2024-03-17T10:41:57;98515.09;;;17.78;48.66
32456;BME280;18912;43.270;27.942;2024-03-17T10:44:24;98510.81;;;17.82;48.81
32456;BME280;18912;43.270;27.942;2024-03-17T10:46:52;98508.56;;;17.28;49.86
32456;BME280;18912;43.270;27.942;2024-03-17T10:49:19;98502.66;;;17.70;49.12
32456;BME280;18912;43.270;27.942;2024-03-17T10:51:47;98510.91;;;16.20;53.19
32456;BME280;18912;43.270;27.942;2024-03-17T10:54:24;98515.25;;;16.74;54.03
32456;BME280;18912;43.270;27.942;2024-03-17T10:56:55;98513.78;;;16.37;55.09
32456;BME280;18912;43.270;27.942;2024-03-17T10:59:28;98521.13;;;16.36;54.67
32456;BME280;18912;43.270;27.942;2024-03-17T11:02:01;98512.16;;;16.06;56.89
32456;BME280;18912;43.270;27.942;2024-03-17T11:04:28;98505.66;;;16.30;55.71
32456;BME280;18912;43.270;27.942;2024-03-17T11:06:54;98509.44;;;16.18;57.09
32456;BME280;18912;43.270;27.942;2024-03-17T11:09:22;98493.13;;;16.29;56.71
32456;BME280;18912;43.270;27.942;2024-03-17T11:11:47;98502.63;;;15.97;58.64
32456;BME280;18912;43.270;27.942;2024-03-17T11:14:18;98495.63;;;15.89;59.19
32456;BME280;18912;43.270;27.942;2024-03-17T11:16:45;98489.66;;;16.34;57.81
32456;BME280;18912;43.270;27.942;2024-03-17T11:19:20;98492.13;;;16.12;58.13
32456;BME280;18912;43.270;27.942;2024-03-17T11:21:45;98491.19;;;16.18;58.70
32456;BME280;18912;43.270;27.942;2024-03-17T11:24:20;98477.06;;;15.68;59.31
32456;BME280;18912;43.270;27.942;2024-03-17T11:26:46;98480.06;;;16.20;58.56
32456;BME280;18912;43.270;27.942;2024-03-17T11:29:43;98479.81;;;14.96;62.92
32456;BME280;18912;43.270;27.942;2024-03-17T11:32:24;98472.78;;;16.02;58.54
32456;BME280;18912;43.270;27.942;2024-03-17T11:34:50;98472.31;;;16.17;56.45
32456;BME280;18912;43.270;27.942;2024-03-17T11:37:42;98461.59;;;15.92;53.62
32456;BME280;18912;43.270;27.942;2024-03-17T11:40:23;98462.75;;;15.84;53.42
32456;BME280;18912;43.270;27.942;2024-03-17T11:43:12;98468.63;;;15.70;52.07
32456;BME280;18912;43.270;27.942;2024-03-17T11:45:41;98456.97;;;15.93;52.22
32456;BME280;18912;43.270;27.942;2024-03-17T11:48:12;98447.97;;;15.92;50.01
32456;BME280;18912;43.270;27.942;2024-03-17T11:50:39;98460.88;;;15.85;49.71
32456;BME280;18912;43.270;27.942;2024-03-17T11:53:08;98447.13;;;15.80;50.97
32456;BME280;18912;43.270;27.942;2024-03-17T11:55:35;98433.69;;;16.20;49.75
32456;BME280;18912;43.270;27.942;2024-03-17T11:58:00;98441.63;;;16.21;49.77
32456;BME280;18912;43.270;27.942;2024-03-17T12:00:26;98444.94;;;16.23;50.17
32456;BME280;18912;43.270;27.942;2024-03-17T12:02:52;98448.47;;;16.01;49.99
32456;BME280;18912;43.270;27.942;2024-03-17T12:05:18;98442.47;;;16.22;48.67
32456;BME280;18912;43.270;27.942;2024-03-17T12:07:44;98433.22;;;15.70;49.19
32456;BME280;18912;43.270;27.942;2024-03-17T12:10:10;98439.38;;;15.77;49.29
32456;BME280;18912;43.270;27.942;2024-03-17T12:12:36;98450.72;;;16.04;48.67
32456;BME280;18912;43.270;27.942;2024-03-17T12:15:03;98430.69;;;15.57;50.59
32456;BME280;18912;43.270;27.942;2024-03-17T12:17:30;98439.44;;;15.59;50.72
32456;BME280;18912;43.270;27.942;2024-03-17T12:19:56;98425.81;;;15.59;49.65
32456;BME280;18912;43.270;27.942;2024-03-17T12:22:23;98433.84;;;15.54;49.47
32456;BME280;18912;43.270;27.942;2024-03-17T12:24:55;98424.19;;;15.22;50.43
32456;BME280;18912;43.270;27.942;2024-03-17T12:27:25;98433.53;;;15.62;49.14
32456;BME280;18912;43.270;27.942;2024-03-17T12:29:53;98422.50;;;15.57;49.60
32456;BME280;18912;43.270;27.942;2024-03-17T12:32:25;98431.22;;;15.47;49.95
32456;BME280;18912;43.270;27.942;2024-03-17T12:34:57;98437.16;;;15.56;50.05
32456;BME280;18912;43.270;27.942;2024-03-17T12:37:23;98433.09;;;15.65;50.14
32456;BME280;18912;43.270;27.942;2024-03-17T12:39:59;98427.59;;;15.53;49.75
32456;BME280;18912;43.270;27.942;2024-03-17T12:42:28;98424.66;;;15.66;51.95
32456;BME280;18912;43.270;27.942;2024-03-17T12:44:59;98414.13;;;15.22;52.95
32456;BME280;18912;43.270;27.942;2024-03-17T12:47:26;98409.94;;;15.56;52.44
32456;BME280;18912;43.270;27.942;2024-03-17T12:49:57;98400.72;;;14.91;53.27
32456;BME280;18912;43.270;27.942;2024-03-17T12:52:32;98403.31;;;15.34;53.97
32456;BME280;18912;43.270;27.942;2024-03-17T12:54:59;98413.00;;;15.48;53.73
32456;BME280;18912;43.270;27.942;2024-03-17T12:57:44;98409.25;;;15.60;51.41
32456;BME280;18912;43.270;27.942;2024-03-17T13:00:28;98397.63;;;15.35;52.05
32456;BME280;18912;43.270;27.942;2024-03-17T13:02:57;98406.94;;;15.46;53.07
32456;BME280;18912;43.270;27.942;2024-03-17T13:05:23;98387.28;;;15.26;53.21
32456;BME280;18912;43.270;27.942;2024-03-17T13:07:49;98396.69;;;14.93;56.21
32456;BME280;18912;43.270;27.942;2024-03-17T13:10:18;98408.03;;;15.09;54.78
32456;BME280;18912;43.270;27.942;2024-03-17T13:12:45;98394.13;;;14.80;56.76